createdAt,value
2023-01-01T00:01:20.611Z,7.68
2023-01-01T00:03:53.739Z,7.65
2023-01-01T00:06:20.424Z,8.90
2023-01-01T00:08:47.040Z,7.90
2023-01-01T00:11:13.594Z,8.05
2023-01-01T00:13:42.297Z,9.27
2023-01-01T00:16:09.772Z,10.27
2023-01-01T00:18:36.546Z,11.10
2023-01-01T00:21:07.346Z,12.93
2023-01-01T00:23:34.459Z,12.05
2023-01-01T00:26:01.125Z,12.18
2023-01-01T00:28:27.846Z,12.25
2023-01-01T00:30:54.172Z,13.13
2023-01-01T00:33:20.541Z,12.82
2023-01-01T00:35:46.868Z,10.70
2023-01-01T00:38:13.248Z,11.18
2023-01-01T00:40:40.841Z,11.00
2023-01-01T00:43:07.377Z,10.32
2023-01-01T00:45:33.829Z,9.32
2023-01-01T00:48:00.227Z,7.88
2023-01-01T00:50:26.691Z,7.60
2023-01-01T00:52:53.144Z,8.25
2023-01-01T00:55:19.739Z,6.90
2023-01-01T00:57:46.073Z,6.07
2023-01-01T01:00:12.889Z,6.13
2023-01-01T01:02:39.494Z,5.22
2023-01-01T01:05:06.158Z,5.65
2023-01-01T01:07:36.392Z,5.18
2023-01-01T01:10:02.942Z,5.00
2023-01-01T01:12:29.649Z,4.40
2023-01-01T01:14:55.947Z,4.40
2023-01-01T01:17:22.301Z,4.28
2023-01-01T01:19:48.692Z,3.60
2023-01-01T01:22:14.988Z,4.22
2023-01-01T01:24:41.396Z,5.25
2023-01-01T01:27:07.728Z,3.90
2023-01-01T01:29:34.017Z,3.60
2023-01-01T01:32:00.316Z,3.95
2023-01-01T01:34:28.327Z,3.38
2023-01-01T01:36:55.345Z,3.55
2023-01-01T01:39:21.736Z,3.10
2023-01-01T01:41:48.172Z,3.10
2023-01-01T01:44:33.430Z,3.13
2023-01-01T01:47:00.008Z,3.28
2023-01-01T01:49:31.923Z,3.20
2023-01-01T01:51:59.527Z,2.25
2023-01-01T01:54:27.635Z,2.80
2023-01-01T01:56:55.688Z,2.92
2023-01-01T01:59:27.004Z,2.80
2023-01-01T02:01:53.794Z,2.38
2023-01-01T02:04:20.342Z,3.08
2023-01-01T02:06:47.049Z,2.13
2023-01-01T02:09:13.773Z,2.50
2023-01-01T02:11:40.107Z,2.15
2023-01-01T02:14:06.983Z,2.45
2023-01-01T02:16:43.236Z,2.17
2023-01-01T02:19:20.947Z,2.60
2023-01-01T02:22:01.968Z,2.20
2023-01-01T02:24:45.525Z,2.47
2023-01-01T02:27:30.713Z,2.33
2023-01-01T02:30:07.940Z,2.10
2023-01-01T02:32:36.315Z,2.20
2023-01-01T02:35:37.029Z,2.10
2023-01-01T02:38:29.096Z,1.90
2023-01-01T02:43:24.775Z,1.67
2023-01-01T02:45:53.166Z,2.35
2023-01-01T02:48:38.630Z,1.73
2023-01-01T02:51:08.969Z,2.38
2023-01-01T02:53:37.525Z,2.22
2023-01-01T02:56:03.770Z,1.95
2023-01-01T02:58:48.683Z,1.90
2023-01-01T03:01:20.947Z,2.22
2023-01-01T03:03:53.676Z,2.00
2023-01-01T03:06:27.170Z,1.80
2023-01-01T03:08:53.527Z,1.88
2023-01-01T03:11:22.126Z,1.50
2023-01-01T03:13:51.326Z,1.90
2023-01-01T03:16:17.807Z,2.38
2023-01-01T03:18:44.373Z,2.03
2023-01-01T03:23:46.164Z,1.85
2023-01-01T03:26:17.072Z,1.75
2023-01-01T03:28:48.372Z,2.38
2023-01-01T03:31:17.186Z,1.77
2023-01-01T03:33:45.486Z,1.83
2023-01-01T03:36:14.531Z,1.77
2023-01-01T03:38:43.218Z,1.50
2023-01-01T03:41:15.080Z,1.90
2023-01-01T03:43:41.495Z,1.92
2023-01-01T03:46:08.974Z,1.55
2023-01-01T03:49:02.230Z,1.73
2023-01-01T03:51:38.182Z,1.80
2023-01-01T03:54:08.480Z,1.92
2023-01-01T03:56:37.985Z,1.70
2023-01-01T03:59:25.143Z,1.92
2023-01-01T04:01:53.237Z,2.28
2023-01-01T04:04:20.119Z,1.88
2023-01-01T04:06:46.915Z,1.70
2023-01-01T04:09:15.754Z,1.70
2023-01-01T04:12:04.143Z,1.98
2023-01-01T04:14:35.245Z,1.88
2023-01-01T04:17:02.477Z,1.85
2023-01-01T04:19:29.117Z,2.15
2023-01-01T04:21:55.520Z,1.70
2023-01-01T04:24:23.130Z,1.80
2023-01-01T04:26:50.180Z,1.60
2023-01-01T04:29:16.732Z,1.90
2023-01-01T04:31:43.358Z,2.50
2023-01-01T04:34:09.820Z,2.00
2023-01-01T04:36:36.198Z,2.20
2023-01-01T04:39:02.736Z,2.00
2023-01-01T04:41:29.098Z,1.90
2023-01-01T04:43:55.447Z,2.17
2023-01-01T04:46:22.158Z,2.30
2023-01-01T04:48:48.724Z,2.53
2023-01-01T04:51:15.949Z,2.08
2023-01-01T04:53:42.467Z,2.03
2023-01-01T04:56:08.859Z,1.85
2023-01-01T04:58:36.241Z,2.30
2023-01-01T05:01:02.754Z,2.10
2023-01-01T05:03:29.535Z,2.10
2023-01-01T05:05:59.860Z,1.90
2023-01-01T05:08:27.552Z,1.70
2023-01-01T05:10:59.122Z,1.67
2023-01-01T05:13:25.467Z,1.52
2023-01-01T05:15:51.854Z,1.80
2023-01-01T05:18:18.334Z,1.45
2023-01-01T05:20:44.673Z,2.30
2023-01-01T05:23:11.102Z,1.60
2023-01-01T05:25:37.510Z,1.48
2023-01-01T05:28:03.913Z,1.55
2023-01-01T05:30:30.348Z,1.90
2023-01-01T05:32:57.309Z,1.75
2023-01-01T05:35:26.520Z,1.85
2023-01-01T05:37:53.293Z,1.95
2023-01-01T05:40:19.779Z,1.55
2023-01-01T05:42:47.933Z,1.77
2023-01-01T05:45:14.314Z,1.70
2023-01-01T05:47:40.732Z,1.17
2023-01-01T05:52:32.822Z,1.23
2023-01-01T05:55:01.114Z,1.55
2023-01-01T05:57:30.362Z,1.17
2023-01-01T05:59:56.826Z,1.10
2023-01-01T06:02:23.327Z,0.95
2023-01-01T06:04:49.734Z,1.10
2023-01-01T06:07:16.063Z,1.52
2023-01-01T06:09:42.448Z,1.20
2023-01-01T06:12:09.000Z,1.30
2023-01-01T06:14:35.301Z,0.93
2023-01-01T06:17:01.808Z,0.77
2023-01-01T06:19:29.498Z,0.90
2023-01-01T06:21:55.949Z,0.80
2023-01-01T06:24:22.379Z,0.98
2023-01-01T06:26:48.776Z,0.80
2023-01-01T06:29:15.150Z,1.05
2023-01-01T06:31:41.528Z,1.10
2023-01-01T06:34:08.377Z,0.90
2023-01-01T06:36:34.823Z,1.25
2023-01-01T06:39:03.459Z,0.82
2023-01-01T06:41:30.840Z,0.90
2023-01-01T06:43:58.070Z,0.70
2023-01-01T06:46:24.558Z,0.95
2023-01-01T06:48:53.078Z,0.90
2023-01-01T06:51:20.734Z,1.02
2023-01-01T06:53:47.975Z,0.77
2023-01-01T06:56:14.659Z,0.70
2023-01-01T06:58:40.984Z,0.77
2023-01-01T07:01:09.840Z,0.90
2023-01-01T07:03:36.832Z,0.90
2023-01-01T07:06:03.341Z,0.73
2023-01-01T07:08:29.722Z,1.00
2023-01-01T07:10:57.553Z,0.90
2023-01-01T07:13:27.586Z,1.00
2023-01-01T07:15:54.055Z,1.50
2023-01-01T07:18:20.699Z,0.88
2023-01-01T07:20:54.474Z,0.98
2023-01-01T07:23:20.960Z,0.70
2023-01-01T07:25:49.193Z,0.90
2023-01-01T07:28:15.511Z,0.70
2023-01-01T07:30:41.870Z,1.02
2023-01-01T07:33:11.873Z,0.77
2023-01-01T07:35:38.511Z,0.60
2023-01-01T07:38:04.933Z,0.68
2023-01-01T07:40:31.481Z,1.77
2023-01-01T07:43:00.705Z,0.75
2023-01-01T07:45:27.167Z,0.60
2023-01-01T07:47:54.681Z,1.00
2023-01-01T07:50:21.679Z,0.88
2023-01-01T07:52:48.014Z,0.93
2023-01-01T07:55:15.149Z,1.55
2023-01-01T07:57:42.298Z,1.05
2023-01-01T08:00:09.531Z,0.80
2023-01-01T08:02:35.985Z,0.93
2023-01-01T08:05:02.387Z,0.68
2023-01-01T08:07:28.724Z,0.70
2023-01-01T08:09:55.195Z,0.88
2023-01-01T08:12:21.521Z,0.80
2023-01-01T08:14:47.882Z,0.88
2023-01-01T08:17:14.226Z,0.65
2023-01-01T08:19:40.804Z,0.93
2023-01-01T08:22:07.247Z,0.65
2023-01-01T08:24:33.603Z,0.80
2023-01-01T08:27:00.036Z,1.08
2023-01-01T08:29:26.395Z,1.33
2023-01-01T08:31:52.725Z,1.75
2023-01-01T08:34:19.394Z,0.95
2023-01-01T08:36:45.981Z,1.20
2023-01-01T08:39:12.363Z,0.80
2023-01-01T08:41:38.700Z,1.13
2023-01-01T08:44:05.095Z,1.15
2023-01-01T08:46:31.526Z,0.93
2023-01-01T08:48:57.934Z,1.20
2023-01-01T08:51:24.330Z,1.13
2023-01-01T08:53:51.628Z,1.15
2023-01-01T08:56:18.155Z,1.23
2023-01-01T08:58:44.513Z,1.50
2023-01-01T09:01:11.391Z,1.08
2023-01-01T09:03:37.810Z,0.98
2023-01-01T09:06:04.447Z,1.00
2023-01-01T09:08:30.766Z,1.00
2023-01-01T09:11:03.875Z,1.30
2023-01-01T09:13:32.651Z,1.27
2023-01-01T09:15:59.759Z,1.20
2023-01-01T09:18:26.163Z,1.00
2023-01-01T09:20:52.560Z,0.95
2023-01-01T09:23:18.850Z,1.00
2023-01-01T09:25:45.190Z,1.00
2023-01-01T09:28:14.181Z,1.13
2023-01-01T09:30:40.848Z,1.00
2023-01-01T09:33:07.270Z,0.90
2023-01-01T09:35:33.591Z,1.60
2023-01-01T09:38:00.000Z,1.10
2023-01-01T09:40:36.390Z,1.27
2023-01-01T09:43:02.987Z,1.20
2023-01-01T09:45:30.780Z,1.00
2023-01-01T09:48:03.470Z,0.85
2023-01-01T09:50:34.466Z,1.58
2023-01-01T09:53:02.613Z,0.98
2023-01-01T09:55:42.001Z,1.23
2023-01-01T09:58:10.399Z,0.95
2023-01-01T10:00:37.920Z,1.05
2023-01-01T10:03:20.243Z,1.10
2023-01-01T10:06:03.492Z,1.20
2023-01-01T10:08:38.868Z,1.67
2023-01-01T10:11:10.722Z,1.25
2023-01-01T10:13:39.119Z,0.98
2023-01-01T10:16:11.489Z,1.17
2023-01-01T10:18:38.827Z,1.40
2023-01-01T10:21:05.152Z,1.13
2023-01-01T10:23:35.390Z,1.10
2023-01-01T10:26:06.308Z,1.23
2023-01-01T10:28:43.498Z,1.30
2023-01-01T10:31:20.982Z,1.73
2023-01-01T10:33:48.292Z,1.23
2023-01-01T10:36:17.256Z,1.30
2023-01-01T10:38:43.819Z,1.00
2023-01-01T10:41:18.977Z,1.40
2023-01-01T10:43:46.673Z,1.08
2023-01-01T10:46:15.615Z,1.30
2023-01-01T10:49:01.954Z,1.20
2023-01-01T10:51:28.340Z,1.67
2023-01-01T10:53:55.691Z,1.00
2023-01-01T10:56:23.511Z,1.40
2023-01-01T10:58:51.063Z,1.42
2023-01-01T11:01:17.377Z,1.60
2023-01-01T11:03:55.915Z,1.35
2023-01-01T11:06:23.859Z,1.20
2023-01-01T11:08:51.657Z,1.45
2023-01-01T11:11:25.538Z,1.58
2023-01-01T11:13:52.673Z,1.80
2023-01-01T11:16:19.225Z,2.03
2023-01-01T11:18:45.818Z,2.13
2023-01-01T11:21:18.910Z,1.85
2023-01-01T11:23:45.191Z,1.60
2023-01-01T11:26:17.427Z,1.85
2023-01-01T11:28:58.807Z,1.80
2023-01-01T11:31:28.347Z,1.85
2023-01-01T11:33:56.161Z,1.85
2023-01-01T11:36:25.588Z,1.65
2023-01-01T11:39:03.789Z,1.95
2023-01-01T11:41:40.548Z,2.00
2023-01-01T11:44:08.465Z,1.60
2023-01-01T11:46:35.201Z,1.55
2023-01-01T11:49:01.573Z,1.65
2023-01-01T11:51:29.477Z,1.70
2023-01-01T11:54:09.222Z,2.00
2023-01-01T11:56:36.303Z,2.20
2023-01-01T11:59:06.780Z,1.88
2023-01-01T12:01:33.076Z,1.90
2023-01-01T12:04:03.246Z,2.80
2023-01-01T12:06:45.292Z,1.95
2023-01-01T12:09:34.972Z,1.90
2023-01-01T12:12:13.652Z,2.10
2023-01-01T12:14:55.310Z,1.98
2023-01-01T12:17:41.869Z,1.95
2023-01-01T12:20:21.231Z,2.00
2023-01-01T12:22:47.864Z,2.40
2023-01-01T12:25:16.169Z,1.98
2023-01-01T12:27:54.530Z,2.42
2023-01-01T12:30:23.958Z,2.33
2023-01-01T12:32:53.326Z,2.55
2023-01-01T12:35:46.216Z,2.28
2023-01-01T12:38:27.980Z,2.20
2023-01-01T12:41:14.629Z,2.20
2023-01-01T12:43:50.191Z,2.33
2023-01-01T12:46:25.292Z,2.60
2023-01-01T12:49:10.990Z,2.17
2023-01-01T12:51:40.168Z,2.35
2023-01-01T12:54:29.946Z,2.35
2023-01-01T12:57:00.715Z,2.33
2023-01-01T13:01:58.541Z,1.98
2023-01-01T13:04:25.178Z,2.38
2023-01-01T13:07:03.803Z,1.73
2023-01-01T13:09:33.413Z,2.03
2023-01-01T13:12:11.135Z,2.20
2023-01-01T13:14:41.252Z,1.90
2023-01-01T13:17:21.371Z,2.00
2023-01-01T13:20:08.002Z,1.90
2023-01-01T13:22:34.578Z,1.65
2023-01-01T13:25:03.716Z,2.30
2023-01-01T13:27:48.907Z,1.90
2023-01-01T13:30:34.026Z,2.38
2023-01-01T13:33:12.678Z,1.90
2023-01-01T13:35:39.067Z,2.30
2023-01-01T13:38:25.448Z,1.80
2023-01-01T13:40:52.817Z,1.73
2023-01-01T13:43:19.675Z,1.80
2023-01-01T13:48:42.746Z,1.77
2023-01-01T13:51:11.904Z,1.65
2023-01-01T13:53:53.582Z,2.05
2023-01-01T13:56:25.904Z,1.88
2023-01-01T13:59:11.130Z,1.60
2023-01-01T14:01:37.630Z,2.20
2023-01-01T14:04:06.260Z,1.95
2023-01-01T14:06:36.029Z,2.03
2023-01-01T14:09:05.131Z,1.80
2023-01-01T14:11:31.588Z,1.67
2023-01-01T14:14:03.453Z,2.42
2023-01-01T14:16:32.233Z,2.35
2023-01-01T14:18:59.568Z,2.60
2023-01-01T14:21:29.306Z,2.28
2023-01-01T14:23:57.377Z,2.63
2023-01-01T14:26:25.518Z,2.63
2023-01-01T14:28:58.985Z,1.85
2023-01-01T14:31:30.237Z,2.08
2023-01-01T14:33:56.666Z,2.28
2023-01-01T14:36:24.856Z,2.60
2023-01-01T14:38:52.813Z,2.53
2023-01-01T14:41:24.130Z,2.72
2023-01-01T14:43:51.795Z,2.25
2023-01-01T14:46:20.298Z,2.60
2023-01-01T14:48:48.046Z,2.08
2023-01-01T14:51:30.762Z,2.28
2023-01-01T14:53:59.243Z,2.20
2023-01-01T14:56:36.884Z,3.03
2023-01-01T14:59:23.710Z,2.75
2023-01-01T15:02:04.080Z,2.30
2023-01-01T15:04:30.682Z,2.22
2023-01-01T15:06:58.240Z,2.42
2023-01-01T15:09:24.816Z,2.00
2023-01-01T15:11:52.154Z,2.90
2023-01-01T15:14:37.324Z,3.70
2023-01-01T15:17:05.383Z,3.45
2023-01-01T15:19:33.241Z,2.80
2023-01-01T15:21:59.818Z,2.75
2023-01-01T15:24:28.625Z,3.35
2023-01-01T15:26:56.954Z,2.80
2023-01-01T15:29:34.508Z,2.75
2023-01-01T15:32:01.837Z,2.67
2023-01-01T15:34:33.063Z,2.70
2023-01-01T15:37:19.648Z,3.38
2023-01-01T15:39:50.519Z,2.70
2023-01-01T15:42:29.080Z,2.83
2023-01-01T15:44:55.427Z,2.88
2023-01-01T15:47:26.539Z,4.60
2023-01-01T15:50:09.585Z,4.03
2023-01-01T15:52:36.317Z,4.60
2023-01-01T15:55:02.954Z,4.13
2023-01-01T15:57:29.380Z,4.43
2023-01-01T15:59:55.858Z,3.80
2023-01-01T16:02:33.050Z,3.10
2023-01-01T16:04:59.918Z,3.13
2023-01-01T16:07:27.205Z,2.90
2023-01-01T16:09:57.755Z,3.70
2023-01-01T16:12:25.117Z,3.00
2023-01-01T16:14:51.514Z,3.65
2023-01-01T16:17:19.636Z,3.38
2023-01-01T16:19:47.904Z,3.40
2023-01-01T16:22:15.734Z,2.83
2023-01-01T16:24:42.700Z,2.80
2023-01-01T16:27:08.997Z,2.92
2023-01-01T16:29:40.334Z,2.70
2023-01-01T16:32:14.885Z,2.92
2023-01-01T16:34:41.193Z,2.67
2023-01-01T16:37:07.512Z,3.17
2023-01-01T16:39:33.871Z,2.97
2023-01-01T16:42:00.519Z,3.65
2023-01-01T16:44:26.923Z,2.75
2023-01-01T16:46:53.314Z,2.75
2023-01-01T16:49:19.680Z,2.80
2023-01-01T16:51:46.055Z,2.45
2023-01-01T16:54:12.341Z,2.72
2023-01-01T16:56:38.670Z,2.90
2023-01-01T16:59:05.031Z,2.90
2023-01-01T17:01:31.774Z,3.30
2023-01-01T17:03:58.189Z,2.75
2023-01-01T17:06:24.535Z,2.70
2023-01-01T17:08:50.927Z,2.83
2023-01-01T17:11:17.978Z,2.40
2023-01-01T17:13:45.163Z,2.63
2023-01-01T17:16:12.305Z,4.10
2023-01-01T17:19:13.438Z,3.88
2023-01-01T17:21:25.318Z,5.93
2023-01-01T17:23:51.687Z,5.40
2023-01-01T17:26:19.756Z,3.05
2023-01-01T17:28:46.712Z,2.83
2023-01-01T17:31:14.558Z,3.30
2023-01-01T17:33:44.360Z,3.15
2023-01-01T17:36:10.908Z,3.30
2023-01-01T17:38:37.963Z,3.90
2023-01-01T17:41:08.036Z,3.78
2023-01-01T17:43:35.560Z,4.38
2023-01-01T17:46:03.922Z,3.95
2023-01-01T17:48:33.363Z,4.65
2023-01-01T17:51:00.124Z,4.80
2023-01-01T17:53:26.510Z,3.35
2023-01-01T17:55:52.935Z,4.03
2023-01-01T17:58:19.345Z,8.82
2023-01-01T18:00:45.754Z,10.20
2023-01-01T18:03:19.145Z,7.03
2023-01-01T18:05:45.556Z,8.70
2023-01-01T18:08:11.960Z,5.93
2023-01-01T18:10:41.358Z,6.93
2023-01-01T18:13:07.758Z,6.40
2023-01-01T18:15:37.745Z,5.95
2023-01-01T18:18:06.744Z,5.28
2023-01-01T18:20:33.060Z,5.97
2023-01-01T18:22:59.416Z,7.32
2023-01-01T18:25:25.900Z,7.78
2023-01-01T18:27:57.266Z,6.50
2023-01-01T18:30:24.161Z,10.02
2023-01-01T18:33:06.218Z,7.90
2023-01-01T18:35:35.682Z,9.80
2023-01-01T18:38:02.215Z,11.20
2023-01-01T18:40:35.033Z,10.77
2023-01-01T18:43:05.083Z,6.35
2023-01-01T18:45:34.634Z,7.78
2023-01-01T18:48:01.506Z,6.93
2023-01-01T18:50:42.203Z,6.05
2023-01-01T18:53:08.730Z,5.95
2023-01-01T18:55:35.206Z,6.30
2023-01-01T18:58:08.603Z,7.18
2023-01-01T19:00:37.532Z,8.43
2023-01-01T19:03:05.180Z,10.25
2023-01-01T19:05:47.829Z,11.25
2023-01-01T19:08:20.155Z,10.52
2023-01-01T19:10:49.532Z,8.13
2023-01-01T19:13:23.474Z,7.82
2023-01-01T19:15:52.027Z,7.32
2023-01-01T19:18:20.050Z,6.03
2023-01-01T19:20:48.827Z,6.22
2023-01-01T19:23:19.846Z,5.97
2023-01-01T19:25:46.495Z,6.20
2023-01-01T19:28:24.625Z,4.35
2023-01-01T19:30:50.948Z,5.28
2023-01-01T19:33:17.592Z,5.28
2023-01-01T19:35:44.122Z,5.63
2023-01-01T19:38:10.437Z,4.72
2023-01-01T19:40:36.847Z,5.55
2023-01-01T19:43:03.622Z,6.18
2023-01-01T19:45:30.070Z,9.07
2023-01-01T19:47:56.485Z,6.13
2023-01-01T19:50:22.973Z,6.10
2023-01-01T19:52:49.393Z,7.25
2023-01-01T19:55:18.020Z,6.30
2023-01-01T19:57:44.371Z,6.78
2023-01-01T20:00:10.954Z,5.65
2023-01-01T20:02:46.622Z,4.70
2023-01-01T20:05:14.037Z,5.00
2023-01-01T20:07:40.690Z,8.73
2023-01-01T20:10:07.240Z,6.35
2023-01-01T20:12:36.664Z,5.40
2023-01-01T20:15:03.225Z,5.65
2023-01-01T20:17:30.755Z,6.45
2023-01-01T20:19:58.414Z,6.07
2023-01-01T20:22:25.084Z,6.35
2023-01-01T20:24:51.504Z,5.38
2023-01-01T20:27:18.146Z,8.88
2023-01-01T20:29:47.573Z,6.45
2023-01-01T20:32:15.426Z,5.47
2023-01-01T20:34:42.059Z,4.93
2023-01-01T20:37:27.012Z,4.88
2023-01-01T20:39:53.375Z,4.47
2023-01-01T20:42:19.776Z,4.40
2023-01-01T20:44:46.072Z,4.32
2023-01-01T20:47:13.108Z,4.63
2023-01-01T20:49:40.308Z,4.63
2023-01-01T20:52:06.902Z,5.15
2023-01-01T20:54:33.316Z,5.30
2023-01-01T20:56:59.724Z,5.15
2023-01-01T20:59:41.485Z,4.75
2023-01-01T21:02:09.185Z,5.35
2023-01-01T21:04:38.302Z,4.93
2023-01-01T21:07:09.094Z,5.32
2023-01-01T21:09:35.984Z,7.95
2023-01-01T21:12:02.367Z,6.47
2023-01-01T21:14:31.764Z,4.85
2023-01-01T21:16:58.150Z,4.25
2023-01-01T21:19:27.213Z,4.90
2023-01-01T21:21:56.171Z,5.10
2023-01-01T21:24:32.781Z,4.80
2023-01-01T21:27:10.775Z,5.88
2023-01-01T21:29:40.712Z,4.97
2023-01-01T21:32:21.995Z,6.17
2023-01-01T21:34:50.435Z,4.72
2023-01-01T21:37:36.721Z,4.00
2023-01-01T21:40:21.650Z,5.05
2023-01-01T21:42:52.603Z,5.80
2023-01-01T21:45:23.027Z,5.32
2023-01-01T21:47:49.368Z,4.95
2023-01-01T21:50:25.478Z,5.78
2023-01-01T21:52:58.300Z,5.40
2023-01-01T21:55:52.143Z,5.30
2023-01-01T21:58:44.062Z,5.70
2023-01-01T22:01:21.723Z,5.03
2023-01-01T22:03:57.835Z,5.40
2023-01-01T22:06:28.106Z,5.50
2023-01-01T22:08:54.434Z,6.20
2023-01-01T22:11:28.663Z,5.20
2023-01-01T22:13:55.486Z,5.80
2023-01-01T22:16:27.768Z,6.18
2023-01-01T22:18:54.183Z,6.38
2023-01-01T22:21:21.332Z,6.57
2023-01-01T22:23:47.762Z,6.78
2023-01-01T22:26:16.737Z,6.43
2023-01-01T22:28:44.596Z,6.53
2023-01-01T22:31:18.264Z,5.93
2023-01-01T22:33:46.285Z,5.72
2023-01-01T22:36:15.586Z,5.75
2023-01-01T22:38:42.100Z,5.88
2023-01-01T22:41:08.506Z,5.90
2023-01-01T22:43:36.884Z,5.80
2023-01-01T22:46:18.795Z,6.40
2023-01-01T22:48:45.148Z,6.57
2023-01-01T22:51:18.526Z,6.63
2023-01-01T22:53:45.160Z,5.97
2023-01-01T22:56:11.677Z,6.80
2023-01-01T22:58:38.076Z,6.00
2023-01-01T23:01:04.557Z,7.10
2023-01-01T23:03:32.171Z,6.30
2023-01-01T23:05:58.785Z,6.13
2023-01-01T23:08:25.731Z,6.85
2023-01-01T23:10:52.322Z,6.80
2023-01-01T23:13:37.591Z,6.05
2023-01-01T23:16:04.086Z,6.88
2023-01-01T23:18:31.818Z,6.18
2023-01-01T23:20:58.469Z,6.18
2023-01-01T23:23:25.267Z,6.90
2023-01-01T23:25:51.700Z,6.65
2023-01-01T23:28:18.399Z,6.63
2023-01-01T23:30:44.989Z,5.78
2023-01-01T23:33:11.633Z,6.00
2023-01-01T23:35:38.071Z,5.95
2023-01-01T23:38:04.387Z,6.05
2023-01-01T23:40:30.746Z,5.78
2023-01-01T23:42:58.692Z,5.82
2023-01-01T23:45:25.152Z,5.72
2023-01-01T23:47:52.293Z,5.50
2023-01-01T23:50:18.822Z,5.00
2023-01-01T23:52:45.351Z,5.40
2023-01-01T23:55:11.714Z,5.50
2023-01-01T23:57:38.096Z,6.30
